createdAt,value
2019-01-12T00:00:31.922Z,41.40
2019-01-12T00:03:02.352Z,45.23
2019-01-12T00:05:32.713Z,44.27
2019-01-12T00:08:03.043Z,42.57
2019-01-12T00:10:33.442Z,43.97
2019-01-12T00:13:03.751Z,42.30
2019-01-12T00:15:34.027Z,41.53
2019-01-12T00:18:04.462Z,40.07
2019-01-12T00:20:34.775Z,45.60
2019-01-12T00:23:05.469Z,39.90
2019-01-12T00:25:35.983Z,37.57
2019-01-12T00:28:06.271Z,37.87
2019-01-12T00:30:36.669Z,43.20
2019-01-12T00:33:07.014Z,39.53
2019-01-12T00:35:37.511Z,44.60
2019-01-12T00:38:07.939Z,39.47
2019-01-12T00:40:38.300Z,35.50
2019-01-12T00:43:08.615Z,35.37
2019-01-12T00:45:38.949Z,37.07
2019-01-12T00:48:10.292Z,32.90
2019-01-12T00:50:40.589Z,36.67
2019-01-12T00:53:13.914Z,33.13
2019-01-12T00:55:43.563Z,31.03
2019-01-12T00:58:13.877Z,32.80
2019-01-12T01:00:44.201Z,33.33
2019-01-12T01:03:14.573Z,31.80
2019-01-12T01:05:44.823Z,35.37
2019-01-12T01:08:15.258Z,32.93
2019-01-12T01:10:45.524Z,32.57
2019-01-12T01:13:15.927Z,33.63
2019-01-12T01:15:46.222Z,30.63
2019-01-12T01:18:16.541Z,31.57
2019-01-12T01:20:47.811Z,26.00
2019-01-12T01:23:18.280Z,23.77
2019-01-12T01:25:49.596Z,27.03
2019-01-12T01:28:19.897Z,30.80
2019-01-12T01:30:50.211Z,30.67
2019-01-12T01:33:27.655Z,27.40
2019-01-12T01:35:52.386Z,30.60
2019-01-12T01:38:22.769Z,28.33
2019-01-12T01:40:53.078Z,25.47
2019-01-12T01:43:23.396Z,27.77
2019-01-12T01:45:53.635Z,25.73
2019-01-12T01:48:23.978Z,33.37
2019-01-12T01:50:53.680Z,24.83
2019-01-12T01:53:23.869Z,24.53
2019-01-12T01:55:53.670Z,24.63
2019-01-12T01:58:23.835Z,22.13
2019-01-12T02:00:54.236Z,27.87
2019-01-12T02:03:24.412Z,27.37
2019-01-12T02:05:54.974Z,24.23
2019-01-12T02:08:25.230Z,23.70
2019-01-12T02:10:55.538Z,24.97
2019-01-12T02:13:25.814Z,26.03
2019-01-12T02:15:56.137Z,22.67
2019-01-12T02:18:26.464Z,25.90
2019-01-12T02:20:56.786Z,20.23
2019-01-12T02:23:27.248Z,22.43
2019-01-12T02:25:57.666Z,24.47
2019-01-12T02:28:28.015Z,24.17
2019-01-12T02:30:58.333Z,25.50
2019-01-12T02:33:28.667Z,20.87
2019-01-12T02:35:58.900Z,25.30
2019-01-12T02:38:29.215Z,26.27
2019-01-12T02:40:59.534Z,23.77
2019-01-12T02:43:29.190Z,23.33
2019-01-12T02:45:59.422Z,28.90
2019-01-12T02:48:30.948Z,24.37
2019-01-12T02:51:01.226Z,26.67
2019-01-12T02:53:31.524Z,21.97
2019-01-12T02:56:01.824Z,22.33
2019-01-12T02:58:32.219Z,23.50
2019-01-12T03:01:02.580Z,18.07
2019-01-12T03:03:33.019Z,20.17
2019-01-12T03:06:03.317Z,20.07
2019-01-12T03:08:33.704Z,28.90
2019-01-12T03:11:04.023Z,26.40
2019-01-12T03:13:33.655Z,25.10
2019-01-12T03:16:04.296Z,26.23
2019-01-12T03:18:34.528Z,23.37
2019-01-12T03:21:04.962Z,18.10
2019-01-12T03:23:35.365Z,22.00
2019-01-12T03:26:05.670Z,26.93
2019-01-12T03:28:35.950Z,26.60
2019-01-12T03:31:06.319Z,21.67
2019-01-12T03:33:37.033Z,25.13
2019-01-12T03:36:07.639Z,22.70
2019-01-12T03:38:37.939Z,27.83
2019-01-12T03:41:08.554Z,22.83
2019-01-12T03:43:38.815Z,28.73
2019-01-12T03:46:09.141Z,27.37
2019-01-12T03:48:39.395Z,21.93
2019-01-12T03:51:09.707Z,19.60
2019-01-12T03:53:39.989Z,23.43
2019-01-12T03:56:10.263Z,23.40
2019-01-12T03:58:40.562Z,21.37
2019-01-12T04:01:10.791Z,20.77
2019-01-12T04:03:41.065Z,27.20
2019-01-12T04:06:11.473Z,26.77
2019-01-12T04:08:41.813Z,22.40
2019-01-12T04:11:12.115Z,22.73
2019-01-12T04:13:42.407Z,23.47
2019-01-12T04:16:12.976Z,27.50
2019-01-12T04:18:43.179Z,23.87
2019-01-12T04:21:13.485Z,23.60
2019-01-12T04:23:43.749Z,26.07
2019-01-12T04:26:14.126Z,23.50
2019-01-12T04:28:44.350Z,23.33
2019-01-12T04:31:14.650Z,21.53
2019-01-12T04:33:45.047Z,32.90
2019-01-12T04:36:15.459Z,22.33
2019-01-12T04:38:45.769Z,23.73
2019-01-12T04:41:16.034Z,32.10
2019-01-12T04:43:46.372Z,23.67
2019-01-12T04:46:16.660Z,27.27
2019-01-12T04:48:46.945Z,31.03
2019-01-12T04:51:17.307Z,28.23
2019-01-12T04:53:47.654Z,35.30
2019-01-12T04:56:17.888Z,25.57
2019-01-12T04:58:48.147Z,28.03
2019-01-12T05:01:18.462Z,25.50
2019-01-12T05:03:48.735Z,27.70
2019-01-12T05:06:19.168Z,28.80
2019-01-12T05:08:49.502Z,35.60
2019-01-12T05:11:19.852Z,25.80
2019-01-12T05:13:50.106Z,26.03
2019-01-12T05:16:20.446Z,28.53
2019-01-12T05:18:50.916Z,33.93
2019-01-12T05:21:21.254Z,30.83
2019-01-12T05:23:51.522Z,25.00
2019-01-12T05:26:21.792Z,28.77
2019-01-12T05:28:52.140Z,26.10
2019-01-12T05:31:21.852Z,29.37
2019-01-12T05:33:52.041Z,27.20
2019-01-12T05:36:22.360Z,25.53
2019-01-12T05:38:52.616Z,27.30
2019-01-12T05:41:22.882Z,27.90
2019-01-12T05:43:53.132Z,27.33
2019-01-12T05:46:23.430Z,27.27
2019-01-12T05:48:53.748Z,22.10
2019-01-12T05:51:24.050Z,23.83
2019-01-12T05:53:54.320Z,25.73
2019-01-12T05:56:24.625Z,23.00
2019-01-12T05:58:54.878Z,25.57
2019-01-12T06:01:25.204Z,22.53
2019-01-12T06:03:55.461Z,23.40
2019-01-12T06:06:25.770Z,19.27
2019-01-12T06:08:56.012Z,18.43
2019-01-12T06:11:26.345Z,23.07
2019-01-12T06:13:56.618Z,21.17
2019-01-12T06:16:26.993Z,27.40
2019-01-12T06:18:57.277Z,18.33
2019-01-12T06:21:29.795Z,19.73
2019-01-12T06:24:00.086Z,23.17
2019-01-12T06:26:30.340Z,24.53
2019-01-12T06:29:00.763Z,21.67
2019-01-12T06:31:31.178Z,19.13
2019-01-12T06:34:01.510Z,24.87
2019-01-12T06:36:31.804Z,21.53
2019-01-12T06:39:02.331Z,19.97
2019-01-12T06:41:32.634Z,19.07
2019-01-12T06:44:02.317Z,20.33
2019-01-12T06:46:32.573Z,21.17
2019-01-12T06:49:02.897Z,26.67
2019-01-12T06:51:33.201Z,21.50
2019-01-12T06:54:03.525Z,22.30
2019-01-12T06:56:33.877Z,20.97
2019-01-12T06:59:05.331Z,19.80
2019-01-12T07:01:35.627Z,23.80
2019-01-12T07:04:05.933Z,25.00
2019-01-12T07:06:36.351Z,28.47
2019-01-12T07:09:08.713Z,22.50
2019-01-12T07:11:38.995Z,19.27
2019-01-12T07:14:09.349Z,24.50
2019-01-12T07:16:38.947Z,19.27
2019-01-12T07:19:09.171Z,17.23
2019-01-12T07:21:39.446Z,17.27
2019-01-12T07:24:09.140Z,20.83
2019-01-12T07:26:39.344Z,22.33
2019-01-12T07:29:09.733Z,23.03
2019-01-12T07:31:40.005Z,21.40
2019-01-12T07:34:10.340Z,25.90
2019-01-12T07:36:40.677Z,21.90
2019-01-12T07:39:10.994Z,22.70
2019-01-12T07:41:41.277Z,28.37
2019-01-12T07:44:11.562Z,22.30
2019-01-12T07:46:41.845Z,31.53
2019-01-12T07:49:11.737Z,27.10
2019-01-12T07:51:41.972Z,24.80
2019-01-12T07:54:12.261Z,23.43
2019-01-12T07:56:42.722Z,30.00
2019-01-12T07:59:12.926Z,27.13
2019-01-12T08:01:43.359Z,29.90
2019-01-12T08:04:13.609Z,29.50
2019-01-12T08:06:43.961Z,27.50
2019-01-12T08:09:14.245Z,29.27
2019-01-12T08:11:44.701Z,27.03
2019-01-12T08:14:15.167Z,26.40
2019-01-12T08:16:45.550Z,26.83
2019-01-12T08:19:16.099Z,28.57
2019-01-12T08:21:46.466Z,30.07
2019-01-12T08:24:16.867Z,29.43
2019-01-12T08:26:47.272Z,34.13
2019-01-12T08:29:17.590Z,30.00
2019-01-12T08:31:48.035Z,42.03
2019-01-12T08:34:18.484Z,33.60
2019-01-12T08:36:48.954Z,45.57
2019-01-12T08:39:19.358Z,39.50
2019-01-12T08:41:50.036Z,45.43
2019-01-12T08:44:20.454Z,44.07
2019-01-12T08:46:50.734Z,51.60
2019-01-12T08:49:21.428Z,50.80
2019-01-12T08:51:51.094Z,44.53
2019-01-12T08:54:21.273Z,38.70
2019-01-12T08:56:51.660Z,41.37
2019-01-12T08:59:24.814Z,43.10
2019-01-12T09:01:55.194Z,44.77
2019-01-12T09:04:25.516Z,39.60
2019-01-12T09:06:56.006Z,44.23
2019-01-12T09:09:26.438Z,40.23
2019-01-12T09:11:56.798Z,38.10
2019-01-12T09:14:27.054Z,32.50
2019-01-12T09:16:56.796Z,41.67
2019-01-12T09:19:27.062Z,36.20
2019-01-12T09:21:57.368Z,31.20
2019-01-12T09:24:27.647Z,37.13
2019-01-12T09:26:57.958Z,36.50
2019-01-12T09:29:28.449Z,35.60
2019-01-12T09:31:58.775Z,42.03
2019-01-12T09:34:29.610Z,37.47
2019-01-12T09:37:00.332Z,39.57
2019-01-12T09:39:30.704Z,32.83
2019-01-12T09:42:01.366Z,40.40
2019-01-12T09:44:32.175Z,33.67
2019-01-12T09:47:02.579Z,38.43
2019-01-12T09:49:33.837Z,32.23
2019-01-12T09:52:05.092Z,34.03
2019-01-12T09:54:36.739Z,37.53
2019-01-12T09:57:07.051Z,36.77
2019-01-12T09:59:37.397Z,39.23
2019-01-12T10:02:07.968Z,44.40
2019-01-12T10:04:38.252Z,44.33
2019-01-12T10:07:08.725Z,42.33
2019-01-12T10:09:39.123Z,42.47
2019-01-12T10:12:09.767Z,47.33
2019-01-12T10:14:40.172Z,41.53
2019-01-12T10:17:10.464Z,38.77
2019-01-12T10:19:40.841Z,40.07
2019-01-12T10:22:11.076Z,46.20
2019-01-12T10:24:44.472Z,40.17
2019-01-12T10:27:14.749Z,44.40
2019-01-12T10:29:45.044Z,42.93
2019-01-12T10:32:15.474Z,42.07
2019-01-12T10:34:45.972Z,44.70
2019-01-12T10:37:16.232Z,41.83
2019-01-12T10:39:46.572Z,44.17
2019-01-12T10:42:16.869Z,47.13
2019-01-12T10:44:47.246Z,40.73
2019-01-12T10:47:18.045Z,34.27
2019-01-12T10:49:48.326Z,40.80
2019-01-12T10:52:18.725Z,42.87
2019-01-12T10:54:48.494Z,34.00
2019-01-12T10:57:18.997Z,37.53
2019-01-12T10:59:49.318Z,36.13
2019-01-12T11:02:19.616Z,34.47
2019-01-12T11:04:49.339Z,34.87
2019-01-12T11:07:20.221Z,37.13
2019-01-12T11:09:50.589Z,35.10
2019-01-12T11:12:21.117Z,38.60
2019-01-12T11:14:51.461Z,35.20
2019-01-12T11:17:21.819Z,38.27
2019-01-12T11:19:52.111Z,31.23
2019-01-12T11:22:22.855Z,34.03
2019-01-12T11:24:52.865Z,30.27
2019-01-12T11:27:23.087Z,32.73
2019-01-12T11:29:53.469Z,29.60
2019-01-12T11:32:25.934Z,30.90
2019-01-12T11:34:56.247Z,29.90
2019-01-12T11:37:26.521Z,34.97
2019-01-12T11:39:56.843Z,28.53
2019-01-12T11:42:27.260Z,33.13
2019-01-12T11:44:57.663Z,30.23
2019-01-12T11:47:28.034Z,27.63
2019-01-12T11:49:58.359Z,33.43
2019-01-12T11:52:28.671Z,30.07
2019-01-12T11:54:58.971Z,30.63
2019-01-12T11:57:29.393Z,27.10
2019-01-12T11:59:59.884Z,30.13
2019-01-12T12:02:30.160Z,32.30
2019-01-12T12:05:00.677Z,32.13
2019-01-12T12:07:31.013Z,32.67
2019-01-12T12:10:01.395Z,34.70
2019-01-12T12:12:31.857Z,37.77
2019-01-12T12:15:03.401Z,27.57
2019-01-12T12:17:33.789Z,33.33
2019-01-12T12:20:05.031Z,32.07
2019-01-12T12:22:35.475Z,30.73
2019-01-12T12:25:06.664Z,27.80
2019-01-12T12:27:36.967Z,30.97
2019-01-12T12:30:10.263Z,33.70
2019-01-12T12:32:40.705Z,26.33
2019-01-12T12:35:11.124Z,25.80
2019-01-12T12:37:41.370Z,30.87
2019-01-12T12:40:13.311Z,31.10
2019-01-12T12:42:43.680Z,36.07
2019-01-12T12:45:17.129Z,40.20
2019-01-12T12:47:47.470Z,38.47
2019-01-12T12:50:18.149Z,29.30
2019-01-12T12:52:48.656Z,29.37
2019-01-12T12:55:19.610Z,31.43
2019-01-12T12:57:49.875Z,34.50
2019-01-12T13:00:22.322Z,35.23
2019-01-12T13:02:52.794Z,31.80
2019-01-12T13:05:23.284Z,36.67
2019-01-12T13:07:53.620Z,35.37
2019-01-12T13:10:27.380Z,30.67
2019-01-12T13:12:57.720Z,34.57
2019-01-12T13:15:28.922Z,38.07
2019-01-12T13:17:59.194Z,38.33
2019-01-12T13:20:29.807Z,37.40
2019-01-12T13:23:00.204Z,39.57
2019-01-12T13:25:30.652Z,33.20
2019-01-12T13:28:01.027Z,44.03
2019-01-12T13:30:31.567Z,35.33
2019-01-12T13:33:02.035Z,31.43
2019-01-12T13:35:32.779Z,37.67
2019-01-12T13:38:03.085Z,46.07
2019-01-12T13:40:33.588Z,37.73
2019-01-12T13:43:03.999Z,45.90
2019-01-12T13:45:34.336Z,44.87
2019-01-12T13:48:05.521Z,41.67
2019-01-12T13:50:35.888Z,44.63
2019-01-12T13:53:07.657Z,40.67
2019-01-12T13:55:40.191Z,44.90
2019-01-12T13:58:10.881Z,43.67
2019-01-12T14:00:41.287Z,44.60
2019-01-12T14:03:11.771Z,47.20
2019-01-12T14:05:42.111Z,48.83
2019-01-12T14:08:12.515Z,44.20
2019-01-12T14:10:42.803Z,46.97
2019-01-12T14:13:13.495Z,46.30
2019-01-12T14:15:43.724Z,46.93
2019-01-12T14:18:14.252Z,48.90
2019-01-12T14:20:44.623Z,46.60
2019-01-12T14:23:14.441Z,41.50
2019-01-12T14:25:44.663Z,41.87
2019-01-12T14:28:15.098Z,44.90
2019-01-12T14:30:45.543Z,43.07
2019-01-12T14:33:16.114Z,32.97
2019-01-12T14:35:46.891Z,46.30
2019-01-12T14:38:20.415Z,40.30
2019-01-12T14:40:50.735Z,43.23
2019-01-12T14:43:21.233Z,49.37
2019-01-12T14:45:51.567Z,48.00
2019-01-12T14:48:21.891Z,50.43
2019-01-12T14:50:52.179Z,48.20
2019-01-12T14:53:22.772Z,45.70
2019-01-12T14:55:53.070Z,46.33
2019-01-12T14:58:23.909Z,42.67
2019-01-12T15:00:54.213Z,43.87
2019-01-12T15:03:24.529Z,50.10
2019-01-12T15:05:54.937Z,45.47
2019-01-12T15:08:25.307Z,43.00
2019-01-12T15:10:55.684Z,54.27
2019-01-12T15:13:26.033Z,46.50
2019-01-12T15:15:57.235Z,43.03
2019-01-12T15:18:29.074Z,48.53
2019-01-12T15:20:59.463Z,44.90
2019-01-12T15:23:30.447Z,55.73
2019-01-12T15:26:00.829Z,41.33
2019-01-12T15:28:31.102Z,41.23
2019-01-12T15:31:01.451Z,54.40
2019-01-12T15:33:31.771Z,42.40
2019-01-12T15:36:02.727Z,43.87
2019-01-12T15:38:33.079Z,44.83
2019-01-12T15:41:03.418Z,48.33
2019-01-12T15:43:33.758Z,48.90
2019-01-12T15:46:04.117Z,48.23
2019-01-12T15:48:34.809Z,46.80
2019-01-12T15:51:05.161Z,51.10
2019-01-12T15:53:35.471Z,47.97
2019-01-12T15:56:05.747Z,47.73
2019-01-12T15:58:36.239Z,52.27
2019-01-12T16:01:06.560Z,49.30
2019-01-12T16:03:36.977Z,46.93
2019-01-12T16:06:06.633Z,53.57
2019-01-12T16:08:36.919Z,51.10
2019-01-12T16:11:07.217Z,52.67
2019-01-12T16:13:37.525Z,51.13
2019-01-12T16:16:08.258Z,55.80
2019-01-12T16:18:38.786Z,53.37
2019-01-12T16:21:09.158Z,45.20
2019-01-12T16:23:39.846Z,57.33
2019-01-12T16:26:10.142Z,47.47
2019-01-12T16:28:40.658Z,51.50
2019-01-12T16:31:10.997Z,50.40
2019-01-12T16:33:41.366Z,55.07
2019-01-12T16:36:11.717Z,46.43
2019-01-12T16:38:42.130Z,55.40
2019-01-12T16:41:12.526Z,49.13
2019-01-12T16:43:44.020Z,46.63
2019-01-12T16:46:14.404Z,52.13
2019-01-12T16:48:44.884Z,46.90
2019-01-12T16:51:15.378Z,54.27
2019-01-12T16:53:46.085Z,45.83
2019-01-12T16:56:16.380Z,48.27
2019-01-12T16:58:47.034Z,56.37
2019-01-12T17:01:17.545Z,43.37
2019-01-12T17:03:47.916Z,52.47
2019-01-12T17:06:20.301Z,45.83
2019-01-12T17:08:51.671Z,46.67
2019-01-12T17:11:22.041Z,48.30
2019-01-12T17:13:52.444Z,53.43
2019-01-12T17:16:22.717Z,51.53
2019-01-12T17:18:53.150Z,54.03
2019-01-12T17:21:23.558Z,46.53
2019-01-12T17:23:53.884Z,56.27
2019-01-12T17:26:24.226Z,49.97
2019-01-12T17:28:54.512Z,53.07
2019-01-12T17:31:24.863Z,54.53
2019-01-12T17:33:56.915Z,48.57
2019-01-12T17:36:29.311Z,57.63
2019-01-12T17:38:59.714Z,62.00
2019-01-12T17:41:30.298Z,50.47
2019-01-12T17:44:00.670Z,56.53
2019-01-12T17:46:31.084Z,63.40
2019-01-12T17:49:01.410Z,52.53
2019-01-12T17:51:31.855Z,55.50
2019-01-12T17:54:02.364Z,57.13
2019-01-12T17:56:32.660Z,57.13
2019-01-12T17:59:03.058Z,60.43
2019-01-12T18:01:33.510Z,61.57
2019-01-12T18:04:03.782Z,69.43
2019-01-12T18:06:34.038Z,65.83
2019-01-12T18:09:05.900Z,61.03
2019-01-12T18:11:36.663Z,57.67
2019-01-12T18:14:07.286Z,54.97
2019-01-12T18:16:37.974Z,55.77
2019-01-12T18:19:08.420Z,61.87
2019-01-12T18:21:38.760Z,63.70
2019-01-12T18:24:09.236Z,65.27
2019-01-12T18:26:39.696Z,65.07
2019-01-12T18:29:10.090Z,76.07
2019-01-12T18:31:40.655Z,60.43
2019-01-12T18:34:11.058Z,66.20
2019-01-12T18:36:42.597Z,66.20
2019-01-12T18:39:13.057Z,67.60
2019-01-12T18:41:43.325Z,63.73
2019-01-12T18:44:13.694Z,70.43
2019-01-12T18:46:44.043Z,66.43
2019-01-12T18:49:14.599Z,76.00
2019-01-12T18:51:44.919Z,68.30
2019-01-12T18:54:15.200Z,72.70
2019-01-12T18:56:45.570Z,74.90
2019-01-12T18:59:16.248Z,66.23
2019-01-12T19:01:46.806Z,81.10
2019-01-12T19:04:17.419Z,78.33
2019-01-12T19:06:47.935Z,75.83
2019-01-12T19:09:18.497Z,65.80
2019-01-12T19:11:48.878Z,85.63
2019-01-12T19:14:19.553Z,73.63
2019-01-12T19:16:49.956Z,68.33
2019-01-12T19:19:20.533Z,79.90
2019-01-12T19:21:50.869Z,80.27
2019-01-12T19:24:21.347Z,77.87
2019-01-12T19:26:51.127Z,70.50
2019-01-12T19:29:21.503Z,85.97
2019-01-12T19:31:51.279Z,84.03
2019-01-12T19:34:21.569Z,82.83
2019-01-12T19:36:51.905Z,85.40
2019-01-12T19:39:22.404Z,81.23
2019-01-12T19:41:53.384Z,85.57
2019-01-12T19:44:23.797Z,86.03
2019-01-12T19:46:55.156Z,84.93
2019-01-12T19:49:25.478Z,84.60
2019-01-12T19:51:56.306Z,80.83
2019-01-12T19:54:26.763Z,77.33
2019-01-12T19:56:57.023Z,78.57
2019-01-12T19:59:27.327Z,75.90
2019-01-12T20:01:58.076Z,63.40
2019-01-12T20:04:27.803Z,70.17
2019-01-12T20:06:58.047Z,68.17
2019-01-12T20:09:28.403Z,68.73
2019-01-12T20:11:58.735Z,68.53
2019-01-12T20:14:29.054Z,63.43
2019-01-12T20:16:59.372Z,65.30
2019-01-12T20:19:29.799Z,65.83
2019-01-12T20:22:00.243Z,67.30
2019-01-12T20:24:30.517Z,65.00
2019-01-12T20:27:01.080Z,61.03
2019-01-12T20:29:31.338Z,69.60
2019-01-12T20:32:48.459Z,69.30
2019-01-12T20:36:21.119Z,65.80
2019-01-12T20:39:35.512Z,66.87
2019-01-12T20:42:45.358Z,60.17
2019-01-12T20:45:50.640Z,60.43
2019-01-12T20:49:10.730Z,56.67
2019-01-12T20:52:22.284Z,58.07
2019-01-12T20:55:44.433Z,60.27
2019-01-12T20:58:56.845Z,51.03
2019-01-12T21:02:06.226Z,58.73
2019-01-12T21:04:55.291Z,53.40
2019-01-12T21:07:54.055Z,54.30
2019-01-12T21:11:04.076Z,57.30
2019-01-12T21:13:56.710Z,60.63
2019-01-12T21:16:30.787Z,53.80
2019-01-12T21:19:01.122Z,48.57
2019-01-12T21:21:31.761Z,50.67
2019-01-12T21:24:02.036Z,46.90
2019-01-12T21:26:31.838Z,50.67
2019-01-12T21:29:01.441Z,44.43
2019-01-12T21:31:31.802Z,47.17
2019-01-12T21:34:02.006Z,41.53
2019-01-12T21:36:32.272Z,45.07
2019-01-12T21:39:01.881Z,43.50
2019-01-12T21:41:33.673Z,39.43
2019-01-12T21:44:03.380Z,44.27
2019-01-12T21:46:33.687Z,41.07
2019-01-12T21:49:04.362Z,35.43
2019-01-12T21:51:34.771Z,33.80
2019-01-12T21:54:05.266Z,36.97
2019-01-12T21:56:35.621Z,33.73
2019-01-12T21:59:07.202Z,31.27
2019-01-12T22:01:37.653Z,36.27
2019-01-12T22:04:07.944Z,33.33
2019-01-12T22:06:38.260Z,31.67
2019-01-12T22:09:10.950Z,31.33
2019-01-12T22:11:41.552Z,30.60
2019-01-12T22:14:11.907Z,31.73
2019-01-12T22:16:42.249Z,33.43
2019-01-12T22:19:12.615Z,37.63
2019-01-12T22:21:43.043Z,33.80
2019-01-12T22:24:13.353Z,37.23
2019-01-12T22:26:43.699Z,31.80
2019-01-12T22:29:13.907Z,39.07
2019-01-12T22:31:44.183Z,36.13
2019-01-12T22:34:14.473Z,37.27
2019-01-12T22:36:44.833Z,37.20
2019-01-12T22:39:15.143Z,36.90
2019-01-12T22:41:46.934Z,37.57
2019-01-12T22:44:17.487Z,33.80
2019-01-12T22:46:47.839Z,41.80
2019-01-12T22:49:18.079Z,43.27
2019-01-12T22:51:48.264Z,41.87
2019-01-12T22:54:19.588Z,43.50
2019-01-12T22:56:49.957Z,44.07
2019-01-12T22:59:20.331Z,38.33
2019-01-12T23:01:57.161Z,37.43
2019-01-12T23:04:29.299Z,45.63
2019-01-12T23:06:59.823Z,37.93
2019-01-12T23:09:30.176Z,39.23
2019-01-12T23:12:01.475Z,38.73
2019-01-12T23:14:33.013Z,38.90
2019-01-12T23:17:04.984Z,37.63
2019-01-12T23:19:35.417Z,40.13
2019-01-12T23:22:07.474Z,36.93
2019-01-12T23:24:37.812Z,38.77
2019-01-12T23:27:08.514Z,37.57
2019-01-12T23:29:39.187Z,43.33
2019-01-12T23:32:09.385Z,39.33
2019-01-12T23:34:39.667Z,46.40
2019-01-12T23:37:09.932Z,42.30
2019-01-12T23:39:40.155Z,47.43
2019-01-12T23:42:11.073Z,43.03
2019-01-12T23:44:41.527Z,41.63
2019-01-12T23:47:11.948Z,42.97
2019-01-12T23:49:42.588Z,44.23
2019-01-12T23:52:13.123Z,47.40
2019-01-12T23:54:43.478Z,46.27
2019-01-12T23:57:13.839Z,43.03
2019-01-12T23:59:45.206Z,48.37
